sensor_id;sensor_type;location;lat;lon;timestamp;temperature;humidity
15341;DHT22;7770;52.158;5.372;2023-04-01T00:01:06;10.10;99.90
15341;DHT22;7770;52.158;5.372;2023-04-01T00:03:53;10.10;99.90
15341;DHT22;7770;52.158;5.372;2023-04-01T00:06:41;10.10;99.90
15341;DHT22;7770;52.158;5.372;2023-04-01T00:09:27;10.10;99.90
15341;DHT22;7770;52.158;5.372;2023-04-01T00:12:13;10.10;99.90
15341;DHT22;7770;52.158;5.372;2023-04-01T00:15:00;10.10;99.90
15341;DHT22;7770;52.158;5.372;2023-04-01T00:17:49;10.10;99.90
15341;DHT22;7770;52.158;5.372;2023-04-01T00:20:36;10.10;99.90
15341;DHT22;7770;52.158;5.372;2023-04-01T00:23:22;10.10;99.90
15341;DHT22;7770;52.158;5.372;2023-04-01T00:26:08;10.10;99.90
15341;DHT22;7770;52.158;5.372;2023-04-01T00:28:54;10.10;99.90
15341;DHT22;7770;52.158;5.372;2023-04-01T00:31:44;10.10;99.90
15341;DHT22;7770;52.158;5.372;2023-04-01T00:34:30;10.10;99.90
15341;DHT22;7770;52.158;5.372;2023-04-01T00:37:16;10.10;99.90
15341;DHT22;7770;52.158;5.372;2023-04-01T00:40:04;10.10;99.90
15341;DHT22;7770;52.158;5.372;2023-04-01T00:42:55;10.10;99.90
15341;DHT22;7770;52.158;5.372;2023-04-01T00:45:44;10.10;99.90
15341;DHT22;7770;52.158;5.372;2023-04-01T00:48:33;10.00;99.90
15341;DHT22;7770;52.158;5.372;2023-04-01T00:51:24;10.00;99.90
15341;DHT22;7770;52.158;5.372;2023-04-01T00:54:12;10.00;99.90
15341;DHT22;7770;52.158;5.372;2023-04-01T00:57:05;10.00;99.90
15341;DHT22;7770;52.158;5.372;2023-04-01T00:59:58;10.00;99.90
15341;DHT22;7770;52.158;5.372;2023-04-01T01:02:45;9.90;99.90
15341;DHT22;7770;52.158;5.372;2023-04-01T01:16:09;9.90;99.90
15341;DHT22;7770;52.158;5.372;2023-04-01T01:33:27;9.80;99.90
15341;DHT22;7770;52.158;5.372;2023-04-01T01:36:21;9.70;99.90
15341;DHT22;7770;52.158;5.372;2023-04-01T01:39:09;9.70;99.90
15341;DHT22;7770;52.158;5.372;2023-04-01T01:42:04;9.70;99.90
15341;DHT22;7770;52.158;5.372;2023-04-01T01:44:55;9.70;99.90
15341;DHT22;7770;52.158;5.372;2023-04-01T01:47:43;9.70;99.90
15341;DHT22;7770;52.158;5.372;2023-04-01T01:50:29;9.70;99.90
15341;DHT22;7770;52.158;5.372;2023-04-01T01:53:16;9.60;99.90
15341;DHT22;7770;52.158;5.372;2023-04-01T01:56:02;9.60;99.90
15341;DHT22;7770;52.158;5.372;2023-04-01T01:59:13;9.60;99.90
15341;DHT22;7770;52.158;5.372;2023-04-01T02:01:59;9.60;99.90
15341;DHT22;7770;52.158;5.372;2023-04-01T02:04:47;9.60;99.90
15341;DHT22;7770;52.158;5.372;2023-04-01T02:07:35;9.60;99.90
15341;DHT22;7770;52.158;5.372;2023-04-01T02:10:24;9.60;99.90
15341;DHT22;7770;52.158;5.372;2023-04-01T02:14:01;9.50;99.90
15341;DHT22;7770;52.158;5.372;2023-04-01T02:16:45;9.50;99.90
15341;DHT22;7770;52.158;5.372;2023-04-01T02:19:38;9.50;99.90
15341;DHT22;7770;52.158;5.372;2023-04-01T02:22:51;9.50;99.90
15341;DHT22;7770;52.158;5.372;2023-04-01T02:25:41;9.50;99.90
15341;DHT22;7770;52.158;5.372;2023-04-01T02:28:29;9.50;99.90
15341;DHT22;7770;52.158;5.372;2023-04-01T02:31:17;9.50;99.90
15341;DHT22;7770;52.158;5.372;2023-04-01T02:34:04;9.50;99.90
15341;DHT22;7770;52.158;5.372;2023-04-01T02:36:51;9.50;99.90
15341;DHT22;7770;52.158;5.372;2023-04-01T02:39:39;9.50;99.90
15341;DHT22;7770;52.158;5.372;2023-04-01T02:42:30;9.40;99.90
15341;DHT22;7770;52.158;5.372;2023-04-01T02:45:16;9.40;99.90
15341;DHT22;7770;52.158;5.372;2023-04-01T02:48:03;9.40;99.90
15341;DHT22;7770;52.158;5.372;2023-04-01T02:50:49;9.50;99.90
15341;DHT22;7770;52.158;5.372;2023-04-01T02:53:35;9.40;99.90
15341;DHT22;7770;52.158;5.372;2023-04-01T02:56:21;9.40;99.90
15341;DHT22;7770;52.158;5.372;2023-04-01T02:59:07;9.40;99.90
15341;DHT22;7770;52.158;5.372;2023-04-01T03:01:53;9.40;99.90
15341;DHT22;7770;52.158;5.372;2023-04-01T03:04:39;9.40;99.90
15341;DHT22;7770;52.158;5.372;2023-04-01T03:07:27;9.40;99.90
15341;DHT22;7770;52.158;5.372;2023-04-01T03:10:14;9.40;99.90
15341;DHT22;7770;52.158;5.372;2023-04-01T03:13:00;9.40;99.90
15341;DHT22;7770;52.158;5.372;2023-04-01T03:15:46;9.40;99.90
15341;DHT22;7770;52.158;5.372;2023-04-01T03:18:32;9.50;99.90
15341;DHT22;7770;52.158;5.372;2023-04-01T03:21:21;9.40;99.90
15341;DHT22;7770;52.158;5.372;2023-04-01T03:24:07;9.40;99.90
15341;DHT22;7770;52.158;5.372;2023-04-01T03:26:58;9.50;99.90
15341;DHT22;7770;52.158;5.372;2023-04-01T03:29:44;9.50;99.90
15341;DHT22;7770;52.158;5.372;2023-04-01T03:32:31;9.50;99.90
15341;DHT22;7770;52.158;5.372;2023-04-01T03:35:18;9.50;99.90
15341;DHT22;7770;52.158;5.372;2023-04-01T03:38:04;9.50;99.90
15341;DHT22;7770;52.158;5.372;2023-04-01T03:40:50;9.50;99.90
15341;DHT22;7770;52.158;5.372;2023-04-01T03:43:36;9.60;99.90
15341;DHT22;7770;52.158;5.372;2023-04-01T03:46:22;9.50;99.90
15341;DHT22;7770;52.158;5.372;2023-04-01T03:49:10;9.60;99.90
15341;DHT22;7770;52.158;5.372;2023-04-01T03:52:00;9.50;99.90
15341;DHT22;7770;52.158;5.372;2023-04-01T03:54:46;9.60;99.90
15341;DHT22;7770;52.158;5.372;2023-04-01T03:57:31;9.50;99.90
15341;DHT22;7770;52.158;5.372;2023-04-01T04:00:18;9.50;99.90
15341;DHT22;7770;52.158;5.372;2023-04-01T04:03:06;9.60;99.90
15341;DHT22;7770;52.158;5.372;2023-04-01T04:05:52;9.60;99.90
15341;DHT22;7770;52.158;5.372;2023-04-01T04:08:39;9.60;99.90
15341;DHT22;7770;52.158;5.372;2023-04-01T04:11:25;9.60;99.90
15341;DHT22;7770;52.158;5.372;2023-04-01T04:14:11;9.60;99.90
15341;DHT22;7770;52.158;5.372;2023-04-01T04:16:57;9.60;99.90
15341;DHT22;7770;52.158;5.372;2023-04-01T04:19:44;9.60;99.90
15341;DHT22;7770;52.158;5.372;2023-04-01T04:22:30;9.60;99.90
15341;DHT22;7770;52.158;5.372;2023-04-01T04:25:16;9.60;99.90
15341;DHT22;7770;52.158;5.372;2023-04-01T04:28:02;9.70;99.90
15341;DHT22;7770;52.158;5.372;2023-04-01T04:30:48;9.70;99.90
15341;DHT22;7770;52.158;5.372;2023-04-01T04:33:35;9.70;99.90
15341;DHT22;7770;52.158;5.372;2023-04-01T04:36:21;9.70;99.90
15341;DHT22;7770;52.158;5.372;2023-04-01T04:39:07;9.70;99.90
15341;DHT22;7770;52.158;5.372;2023-04-01T04:41:53;9.70;99.90
15341;DHT22;7770;52.158;5.372;2023-04-01T04:44:39;9.70;99.90
15341;DHT22;7770;52.158;5.372;2023-04-01T04:47:25;9.70;99.90
15341;DHT22;7770;52.158;5.372;2023-04-01T04:50:12;9.70;99.90
15341;DHT22;7770;52.158;5.372;2023-04-01T04:53:00;9.70;99.90
15341;DHT22;7770;52.158;5.372;2023-04-01T04:55:50;9.70;99.90
15341;DHT22;7770;52.158;5.372;2023-04-01T04:58:39;9.80;99.90
15341;DHT22;7770;52.158;5.372;2023-04-01T05:01:26;9.70;99.90
15341;DHT22;7770;52.158;5.372;2023-04-01T05:04:12;9.80;99.90
15341;DHT22;7770;52.158;5.372;2023-04-01T05:06:58;9.80;99.90
15341;DHT22;7770;52.158;5.372;2023-04-01T05:09:44;9.80;99.90
15341;DHT22;7770;52.158;5.372;2023-04-01T05:12:31;9.80;99.90
15341;DHT22;7770;52.158;5.372;2023-04-01T05:15:21;9.80;99.90
15341;DHT22;7770;52.158;5.372;2023-04-01T05:18:07;9.80;99.90
15341;DHT22;7770;52.158;5.372;2023-04-01T05:20:54;9.80;99.90
15341;DHT22;7770;52.158;5.372;2023-04-01T05:23:43;9.80;99.90
15341;DHT22;7770;52.158;5.372;2023-04-01T05:26:30;9.80;99.90
15341;DHT22;7770;52.158;5.372;2023-04-01T05:29:16;9.80;99.90
15341;DHT22;7770;52.158;5.372;2023-04-01T05:32:02;9.80;99.90
15341;DHT22;7770;52.158;5.372;2023-04-01T05:34:50;9.80;99.90
15341;DHT22;7770;52.158;5.372;2023-04-01T05:37:41;9.80;99.90
15341;DHT22;7770;52.158;5.372;2023-04-01T05:40:28;9.70;99.90
15341;DHT22;7770;52.158;5.372;2023-04-01T05:43:14;9.80;99.90
15341;DHT22;7770;52.158;5.372;2023-04-01T05:46:00;9.80;99.90
15341;DHT22;7770;52.158;5.372;2023-04-01T05:48:47;9.80;99.90
15341;DHT22;7770;52.158;5.372;2023-04-01T05:51:34;9.80;99.90
15341;DHT22;7770;52.158;5.372;2023-04-01T05:54:20;9.80;99.90
15341;DHT22;7770;52.158;5.372;2023-04-01T05:57:06;9.80;99.90
15341;DHT22;7770;52.158;5.372;2023-04-01T05:59:52;9.80;99.90
15341;DHT22;7770;52.158;5.372;2023-04-01T06:02:41;9.80;99.90
15341;DHT22;7770;52.158;5.372;2023-04-01T06:05:38;9.80;99.90
15341;DHT22;7770;52.158;5.372;2023-04-01T06:08:31;9.80;99.90
15341;DHT22;7770;52.158;5.372;2023-04-01T06:11:33;9.80;99.90
15341;DHT22;7770;52.158;5.372;2023-04-01T06:15:06;9.80;99.90
15341;DHT22;7770;52.158;5.372;2023-04-01T06:18:15;9.90;99.90
15341;DHT22;7770;52.158;5.372;2023-04-01T06:27:36;9.90;99.90
15341;DHT22;7770;52.158;5.372;2023-04-01T06:30:57;9.90;99.90
15341;DHT22;7770;52.158;5.372;2023-04-01T06:41:21;10.00;99.90
15341;DHT22;7770;52.158;5.372;2023-04-01T06:44:28;10.00;99.90
15341;DHT22;7770;52.158;5.372;2023-04-01T06:54:29;10.00;99.90
15341;DHT22;7770;52.158;5.372;2023-04-01T06:57:38;10.00;99.90
15341;DHT22;7770;52.158;5.372;2023-04-01T07:00:31;10.00;99.90
15341;DHT22;7770;52.158;5.372;2023-04-01T07:03:27;10.00;99.90
15341;DHT22;7770;52.158;5.372;2023-04-01T07:06:36;10.10;99.90
15341;DHT22;7770;52.158;5.372;2023-04-01T07:09:32;10.10;99.90
15341;DHT22;7770;52.158;5.372;2023-04-01T07:12:47;10.10;99.90
15341;DHT22;7770;52.158;5.372;2023-04-01T07:15:45;10.20;99.90
15341;DHT22;7770;52.158;5.372;2023-04-01T07:22:10;10.20;99.90
15341;DHT22;7770;52.158;5.372;2023-04-01T07:25:18;10.30;99.90
15341;DHT22;7770;52.158;5.372;2023-04-01T07:28:12;10.30;99.90
15341;DHT22;7770;52.158;5.372;2023-04-01T07:34:19;10.30;99.90
15341;DHT22;7770;52.158;5.372;2023-04-01T07:37:15;10.30;99.90
15341;DHT22;7770;52.158;5.372;2023-04-01T07:43:52;10.40;99.90
15341;DHT22;7770;52.158;5.372;2023-04-01T07:53:51;10.40;99.90
15341;DHT22;7770;52.158;5.372;2023-04-01T07:57:01;10.40;99.90
15341;DHT22;7770;52.158;5.372;2023-04-01T08:07:03;10.40;99.90
15341;DHT22;7770;52.158;5.372;2023-04-01T08:16:18;10.50;99.90
15341;DHT22;7770;52.158;5.372;2023-04-01T08:22:33;10.60;99.90
15341;DHT22;7770;52.158;5.372;2023-04-01T08:25:30;10.60;99.90
15341;DHT22;7770;52.158;5.372;2023-04-01T08:31:38;10.60;99.90
15341;DHT22;7770;52.158;5.372;2023-04-01T08:34:41;10.80;99.90
15341;DHT22;7770;52.158;5.372;2023-04-01T08:37:32;10.70;99.90
15341;DHT22;7770;52.158;5.372;2023-04-01T08:40:50;10.70;99.90
15341;DHT22;7770;52.158;5.372;2023-04-01T08:47:16;10.70;99.90
15341;DHT22;7770;52.158;5.372;2023-04-01T08:56:27;10.80;99.90
15341;DHT22;7770;52.158;5.372;2023-04-01T08:59:42;10.70;99.90
15341;DHT22;7770;52.158;5.372;2023-04-01T09:13:13;10.90;99.90
15341;DHT22;7770;52.158;5.372;2023-04-01T09:20:26;11.00;99.90
15341;DHT22;7770;52.158;5.372;2023-04-01T09:24:00;11.10;99.90
15341;DHT22;7770;52.158;5.372;2023-04-01T09:34:13;11.10;99.90
15341;DHT22;7770;52.158;5.372;2023-04-01T09:50:21;12.00;99.90
15341;DHT22;7770;52.158;5.372;2023-04-01T10:26:26;13.00;99.90
15341;DHT22;7770;52.158;5.372;2023-04-01T10:36:04;12.50;99.90
15341;DHT22;7770;52.158;5.372;2023-04-01T10:39:22;12.40;99.90
15341;DHT22;7770;52.158;5.372;2023-04-01T10:49:38;12.50;99.90
15341;DHT22;7770;52.158;5.372;2023-04-01T10:53:00;12.60;99.90
15341;DHT22;7770;52.158;5.372;2023-04-01T10:56:33;12.90;99.90
15341;DHT22;7770;52.158;5.372;2023-04-01T11:21:36;12.70;99.90
15341;DHT22;7770;52.158;5.372;2023-04-01T11:27:25;12.80;99.90
15341;DHT22;7770;52.158;5.372;2023-04-01T11:34:05;12.70;99.90
15341;DHT22;7770;52.158;5.372;2023-04-01T11:37:55;12.70;99.90
15341;DHT22;7770;52.158;5.372;2023-04-01T11:41:13;12.70;99.90
15341;DHT22;7770;52.158;5.372;2023-04-01T12:06:32;11.70;99.90
15341;DHT22;7770;52.158;5.372;2023-04-01T12:43:00;11.80;99.90
15341;DHT22;7770;52.158;5.372;2023-04-01T12:46:07;11.90;99.90
15341;DHT22;7770;52.158;5.372;2023-04-01T12:55:49;12.10;99.90
15341;DHT22;7770;52.158;5.372;2023-04-01T13:15:36;12.20;99.90
15341;DHT22;7770;52.158;5.372;2023-04-01T13:18:46;12.10;99.90
15341;DHT22;7770;52.158;5.372;2023-04-01T13:25:00;11.80;99.90
15341;DHT22;7770;52.158;5.372;2023-04-01T13:27:58;11.80;99.90
15341;DHT22;7770;52.158;5.372;2023-04-01T13:37:41;11.80;99.90
15341;DHT22;7770;52.158;5.372;2023-04-01T13:43:52;11.70;99.90
15341;DHT22;7770;52.158;5.372;2023-04-01T14:13:48;11.50;99.90
15341;DHT22;7770;52.158;5.372;2023-04-01T14:17:16;11.50;99.90
15341;DHT22;7770;52.158;5.372;2023-04-01T14:24:14;11.50;99.90
15341;DHT22;7770;52.158;5.372;2023-04-01T14:27:28;11.50;99.90
15341;DHT22;7770;52.158;5.372;2023-04-01T14:30:32;11.40;99.90
15341;DHT22;7770;52.158;5.372;2023-04-01T14:34:00;11.50;99.90
15341;DHT22;7770;52.158;5.372;2023-04-01T14:37:10;11.40;99.90
15341;DHT22;7770;52.158;5.372;2023-04-01T14:40:22;11.50;99.90
15341;DHT22;7770;52.158;5.372;2023-04-01T14:49:53;11.20;99.90
15341;DHT22;7770;52.158;5.372;2023-04-01T14:56:10;11.00;99.90
15341;DHT22;7770;52.158;5.372;2023-04-01T14:58:57;11.00;99.90
15341;DHT22;7770;52.158;5.372;2023-04-01T15:05:31;11.00;99.90
15341;DHT22;7770;52.158;5.372;2023-04-01T15:08:29;11.00;99.90
15341;DHT22;7770;52.158;5.372;2023-04-01T15:11:28;10.90;99.90
15341;DHT22;7770;52.158;5.372;2023-04-01T15:20:42;10.90;99.90
15341;DHT22;7770;52.158;5.372;2023-04-01T15:33:31;11.00;99.90
15341;DHT22;7770;52.158;5.372;2023-04-01T15:49:43;10.80;99.90
15341;DHT22;7770;52.158;5.372;2023-04-01T15:52:54;10.80;99.90
15341;DHT22;7770;52.158;5.372;2023-04-01T15:56:24;10.80;99.90
15341;DHT22;7770;52.158;5.372;2023-04-01T16:06:22;10.60;99.90
15341;DHT22;7770;52.158;5.372;2023-04-01T16:09:26;10.60;99.90
15341;DHT22;7770;52.158;5.372;2023-04-01T16:12:30;10.60;99.90
15341;DHT22;7770;52.158;5.372;2023-04-01T16:16:00;10.60;99.90
15341;DHT22;7770;52.158;5.372;2023-04-01T16:26:18;10.50;99.90
15341;DHT22;7770;52.158;5.372;2023-04-01T16:36:09;10.30;99.90
15341;DHT22;7770;52.158;5.372;2023-04-01T16:39:11;10.30;99.90
15341;DHT22;7770;52.158;5.372;2023-04-01T16:42:10;10.20;99.90
15341;DHT22;7770;52.158;5.372;2023-04-01T16:45:15;10.20;99.90
15341;DHT22;7770;52.158;5.372;2023-04-01T16:51:07;10.00;99.90
15341;DHT22;7770;52.158;5.372;2023-04-01T17:06:17;9.80;99.90
15341;DHT22;7770;52.158;5.372;2023-04-01T17:15:37;9.80;99.90
15341;DHT22;7770;52.158;5.372;2023-04-01T17:25:11;9.70;99.90
15341;DHT22;7770;52.158;5.372;2023-04-01T17:40:29;9.40;99.90
15341;DHT22;7770;52.158;5.372;2023-04-01T17:49:42;9.40;99.90
15341;DHT22;7770;52.158;5.372;2023-04-01T17:52:37;9.40;99.90
15341;DHT22;7770;52.158;5.372;2023-04-01T18:04:53;9.30;99.90
15341;DHT22;7770;52.158;5.372;2023-04-01T18:11:16;9.30;99.90
15341;DHT22;7770;52.158;5.372;2023-04-01T18:14:37;9.30;99.90
15341;DHT22;7770;52.158;5.372;2023-04-01T18:20:37;9.20;99.90
15341;DHT22;7770;52.158;5.372;2023-04-01T18:26:34;9.20;99.90
15341;DHT22;7770;52.158;5.372;2023-04-01T18:29:47;9.20;99.90
15341;DHT22;7770;52.158;5.372;2023-04-01T18:36:03;9.10;99.90
15341;DHT22;7770;52.158;5.372;2023-04-01T18:42:31;9.10;99.90
15341;DHT22;7770;52.158;5.372;2023-04-01T18:52:13;9.10;99.90
15341;DHT22;7770;52.158;5.372;2023-04-01T18:57:55;9.10;99.90
15341;DHT22;7770;52.158;5.372;2023-04-01T19:04:14;9.10;99.90
15341;DHT22;7770;52.158;5.372;2023-04-01T19:07:45;9.10;99.90
15341;DHT22;7770;52.158;5.372;2023-04-01T19:13:53;9.00;99.90
15341;DHT22;7770;52.158;5.372;2023-04-01T19:17:15;9.00;99.90
15341;DHT22;7770;52.158;5.372;2023-04-01T19:20:26;9.00;99.90
15341;DHT22;7770;52.158;5.372;2023-04-01T19:36:45;8.80;99.90
15341;DHT22;7770;52.158;5.372;2023-04-01T19:43:03;8.70;99.90
15341;DHT22;7770;52.158;5.372;2023-04-01T19:49:14;8.60;99.90
15341;DHT22;7770;52.158;5.372;2023-04-01T19:52:40;8.60;99.90
15341;DHT22;7770;52.158;5.372;2023-04-01T19:55:35;8.50;99.90
15341;DHT22;7770;52.158;5.372;2023-04-01T20:01:55;8.50;99.90
15341;DHT22;7770;52.158;5.372;2023-04-01T20:04:55;8.50;99.90
15341;DHT22;7770;52.158;5.372;2023-04-01T20:07:47;8.50;99.90
15341;DHT22;7770;52.158;5.372;2023-04-01T20:11:12;8.40;99.90
15341;DHT22;7770;52.158;5.372;2023-04-01T20:14:48;8.40;99.90
15341;DHT22;7770;52.158;5.372;2023-04-01T20:20:28;8.20;99.90
15341;DHT22;7770;52.158;5.372;2023-04-01T20:23:41;8.20;99.90
15341;DHT22;7770;52.158;5.372;2023-04-01T20:26:39;8.20;99.90
15341;DHT22;7770;52.158;5.372;2023-04-01T20:36:30;8.10;99.90
15341;DHT22;7770;52.158;5.372;2023-04-01T20:43:22;8.10;99.90
15341;DHT22;7770;52.158;5.372;2023-04-01T20:46:30;8.10;99.90
15341;DHT22;7770;52.158;5.372;2023-04-01T20:49:30;8.10;99.90
15341;DHT22;7770;52.158;5.372;2023-04-01T20:52:32;7.90;99.90
15341;DHT22;7770;52.158;5.372;2023-04-01T21:12:33;7.70;99.90
15341;DHT22;7770;52.158;5.372;2023-04-01T21:26:19;7.70;99.90
15341;DHT22;7770;52.158;5.372;2023-04-01T21:33:03;7.80;99.90
15341;DHT22;7770;52.158;5.372;2023-04-01T21:43:03;7.50;99.90
15341;DHT22;7770;52.158;5.372;2023-04-01T21:52:45;7.50;99.90
15341;DHT22;7770;52.158;5.372;2023-04-01T21:59:33;7.40;99.90
15341;DHT22;7770;52.158;5.372;2023-04-01T22:02:48;7.30;99.90
15341;DHT22;7770;52.158;5.372;2023-04-01T22:06:06;7.30;99.90
15341;DHT22;7770;52.158;5.372;2023-04-01T22:09:11;7.30;99.90
15341;DHT22;7770;52.158;5.372;2023-04-01T22:12:28;7.40;99.90
15341;DHT22;7770;52.158;5.372;2023-04-01T22:18:34;7.30;99.90
15341;DHT22;7770;52.158;5.372;2023-04-01T22:21:49;7.30;99.90
15341;DHT22;7770;52.158;5.372;2023-04-01T22:25:11;7.30;99.90
15341;DHT22;7770;52.158;5.372;2023-04-01T22:28:07;7.20;99.90
15341;DHT22;7770;52.158;5.372;2023-04-01T22:30:59;7.20;99.90
15341;DHT22;7770;52.158;5.372;2023-04-01T22:34:08;7.20;99.90
15341;DHT22;7770;52.158;5.372;2023-04-01T22:40:28;7.10;99.90
15341;DHT22;7770;52.158;5.372;2023-04-01T22:49:41;7.00;99.90
15341;DHT22;7770;52.158;5.372;2023-04-01T22:52:37;7.00;99.90
15341;DHT22;7770;52.158;5.372;2023-04-01T22:55:29;6.90;99.90
15341;DHT22;7770;52.158;5.372;2023-04-01T22:58:30;7.00;99.90
15341;DHT22;7770;52.158;5.372;2023-04-01T23:01:24;6.90;99.90
15341;DHT22;7770;52.158;5.372;2023-04-01T23:04:15;6.90;99.90
15341;DHT22;7770;52.158;5.372;2023-04-01T23:07:33;6.90;99.90
15341;DHT22;7770;52.158;5.372;2023-04-01T23:13:35;6.80;99.90
15341;DHT22;7770;52.158;5.372;2023-04-01T23:16:48;6.80;99.90
15341;DHT22;7770;52.158;5.372;2023-04-01T23:26:14;6.80;99.90
15341;DHT22;7770;52.158;5.372;2023-04-01T23:29:04;6.80;99.90
15341;DHT22;7770;52.158;5.372;2023-04-01T23:32:01;6.90;99.90
15341;DHT22;7770;52.158;5.372;2023-04-01T23:34:52;6.80;99.90
15341;DHT22;7770;52.158;5.372;2023-04-01T23:37:40;6.80;99.90
15341;DHT22;7770;52.158;5.372;2023-04-01T23:40:26;6.80;99.90
15341;DHT22;7770;52.158;5.372;2023-04-01T23:43:27;6.70;99.90
15341;DHT22;7770;52.158;5.372;2023-04-01T23:46:16;6.70;99.90
15341;DHT22;7770;52.158;5.372;2023-04-01T23:49:03;6.70;99.90
15341;DHT22;7770;52.158;5.372;2023-04-01T23:51:58;6.80;99.90
15341;DHT22;7770;52.158;5.372;2023-04-01T23:54:58;6.70;99.90
